Time;durP1;ratioP1;P1;durP2;ratioP2;P2;SDS_P1;SDS_P2;PMS_P1;PMS_P2;Temp;Humidity;BMP_temperature;BMP_pressure;BME280_temperature;BME280_humidity;BME280_pressure;Samples;Min_cycle;Max_cycle;Signal;HPM_P1;HPM_P2
2022/02/21 00:01:52;;;;;;;0.70;0.50;;;7.60;99.90;;;;;;5030734;28;20218;-71
2022/02/21 00:04:17;;;;;;;0.70;0.50;;;7.60;99.90;;;;;;5040429;28;20520;-72
2022/02/21 00:06:43;;;;;;;0.70;0.50;;;7.50;99.90;;;;;;5052539;28;20415;-72
2022/02/21 00:09:15;;;;;;;0.70;0.50;;;7.40;99.90;;;;;;5052157;28;20581;-72
2022/02/21 00:11:41;;;;;;;0.70;0.50;;;7.30;99.90;;;;;;5052326;28;20248;-72
2022/02/21 00:14:07;;;;;;;0.70;0.50;;;7.30;99.90;;;;;;5045077;28;20460;-72
2022/02/21 00:16:33;;;;;;;0.70;0.50;;;7.30;99.90;;;;;;5033257;28;20418;-72
2022/02/21 00:18:59;;;;;;;0.70;0.50;;;7.20;99.90;;;;;;5037316;28;20488;-72
2022/02/21 00:21:25;;;;;;;0.70;0.50;;;7.20;99.90;;;;;;5038525;28;20241;-72
2022/02/21 00:23:51;;;;;;;1.73;1.23;;;7.20;99.90;;;;;;5046297;28;20424;-71
2022/02/21 00:26:18;;;;;;;0.70;0.50;;;7.20;99.90;;;;;;5051728;28;20548;-70
2022/02/21 00:28:44;;;;;;;0.70;0.50;;;7.20;99.90;;;;;;5051440;28;20482;-70
2022/02/21 00:31:10;;;;;;;0.70;0.50;;;7.20;99.90;;;;;;5039652;28;20544;-72
2022/02/21 00:33:35;;;;;;;0.73;0.60;;;7.20;99.90;;;;;;5031975;28;20433;-71
2022/02/21 00:36:01;;;;;;;0.70;0.50;;;7.20;99.90;;;;;;5034094;28;20410;-72
2022/02/21 00:38:26;;;;;;;0.70;0.50;;;7.10;99.90;;;;;;5032708;28;20180;-70
2022/02/21 00:40:52;;;;;;;0.70;0.50;;;7.10;99.90;;;;;;5030319;28;20207;-70
2022/02/21 00:43:18;;;;;;;0.70;0.50;;;7.10;99.90;;;;;;5031727;28;20191;-72
2022/02/21 00:45:44;;;;;;;0.70;0.43;;;7.10;99.90;;;;;;5038579;28;20264;-72
2022/02/21 00:48:09;;;;;;;0.70;0.50;;;7.00;99.90;;;;;;5031912;28;20403;-71
2022/02/21 00:50:35;;;;;;;0.70;0.50;;;7.00;99.90;;;;;;5037139;28;20480;-70
2022/02/21 00:53:01;;;;;;;0.70;0.50;;;7.10;99.90;;;;;;5051550;28;20171;-71
2022/02/21 00:55:27;;;;;;;0.70;0.50;;;7.10;99.90;;;;;;5050993;28;20191;-70
2022/02/21 00:57:53;;;;;;;0.70;0.50;;;7.20;99.90;;;;;;5051493;28;20635;-72
2022/02/21 01:00:20;;;;;;;0.70;0.40;;;7.30;99.90;;;;;;5034006;28;20465;-72
2022/02/21 01:02:46;;;;;;;0.70;0.40;;;7.30;99.90;;;;;;5032508;28;20175;-72
2022/02/21 01:05:12;;;;;;;0.70;0.50;;;7.40;99.90;;;;;;5031562;28;20445;-70
2022/02/21 01:07:37;;;;;;;0.70;0.50;;;7.50;99.90;;;;;;5032187;28;20179;-71
2022/02/21 01:10:04;;;;;;;0.80;0.70;;;7.60;99.90;;;;;;5031411;28;20774;-71
2022/02/21 01:12:30;;;;;;;0.70;0.50;;;7.60;99.90;;;;;;5032090;28;20188;-70
2022/02/21 01:14:56;;;;;;;0.70;0.50;;;7.60;99.90;;;;;;5052085;28;20542;-71
2022/02/21 01:17:22;;;;;;;0.70;0.50;;;7.50;99.90;;;;;;5049604;28;20224;-70
2022/02/21 01:19:50;;;;;;;0.70;0.50;;;7.30;99.90;;;;;;5027811;28;20176;-71
2022/02/21 01:22:16;;;;;;;0.70;0.50;;;7.20;99.90;;;;;;5031066;28;20460;-71
2022/02/21 01:24:42;;;;;;;0.70;0.50;;;7.00;99.90;;;;;;5031252;28;20438;-70
2022/02/21 01:27:07;;;;;;;0.70;0.50;;;7.00;99.90;;;;;;5033749;28;20430;-70
2022/02/21 01:29:33;;;;;;;0.70;0.47;;;6.90;99.90;;;;;;5035455;28;20171;-71
2022/02/21 01:31:59;;;;;;;0.70;0.50;;;6.80;99.90;;;;;;5033729;28;20628;-71
2022/02/21 01:34:24;;;;;;;0.70;0.50;;;6.80;99.90;;;;;;5037031;28;20633;-69
2022/02/21 01:36:52;;;;;;;0.70;0.50;;;6.70;99.90;;;;;;5054738;28;20163;-70
2022/02/21 01:39:18;;;;;;;0.70;0.50;;;6.70;99.90;;;;;;5035543;28;20171;-71
2022/02/21 01:41:43;;;;;;;0.70;0.50;;;6.70;99.90;;;;;;5035395;28;20476;-70
2022/02/21 01:44:11;;;;;;;0.70;0.40;;;6.70;99.90;;;;;;5034022;28;20426;-71
2022/02/21 01:46:38;;;;;;;0.70;0.50;;;6.60;99.90;;;;;;5045863;28;20179;-70
2022/02/21 01:49:05;;;;;;;0.70;0.43;;;6.60;99.90;;;;;;5038372;28;20425;-70
2022/02/21 01:51:32;;;;;;;0.70;0.50;;;6.60;99.90;;;;;;5035528;28;20422;-71
2022/02/21 01:53:58;;;;;;;0.70;0.50;;;6.60;99.90;;;;;;5035378;28;20422;-71
2022/02/21 01:56:24;;;;;;;0.70;0.50;;;6.50;99.90;;;;;;5035518;28;20483;-70
2022/02/21 01:58:50;;;;;;;0.70;0.50;;;6.50;99.90;;;;;;5034103;28;20886;-69
2022/02/21 02:01:16;;;;;;;0.70;0.50;;;6.50;99.90;;;;;;5034121;28;20490;-71
2022/02/21 02:03:41;;;;;;;0.70;0.50;;;6.50;99.90;;;;;;5034383;28;20414;-72
2022/02/21 02:06:09;;;;;;;0.70;0.50;;;6.50;99.90;;;;;;5054167;28;20175;-70
2022/02/21 02:08:35;;;;;;;0.70;0.50;;;6.50;99.90;;;;;;5054378;28;20190;-71
2022/02/21 02:11:01;;;;;;;0.70;0.50;;;6.40;99.90;;;;;;5036769;28;20832;-71
2022/02/21 02:13:27;;;;;;;0.70;0.50;;;6.30;99.90;;;;;;5034357;28;20234;-71
2022/02/21 02:15:54;;;;;;;0.70;0.50;;;6.30;99.90;;;;;;5034533;28;20781;-70
2022/02/21 02:18:23;;;;;;;0.70;0.50;;;6.20;99.90;;;;;;5032586;28;20504;-71
2022/02/21 02:20:49;;;;;;;0.70;0.50;;;6.20;99.90;;;;;;5044565;28;20473;-71
2022/02/21 02:23:15;;;;;;;0.70;0.40;;;6.20;99.90;;;;;;5049172;28;21245;-71
2022/02/21 02:25:41;;;;;;;0.70;0.50;;;6.10;99.90;;;;;;5046616;28;20425;-71
2022/02/21 02:28:07;;;;;;;0.70;0.50;;;6.10;99.90;;;;;;5053860;28;20505;-72
2022/02/21 02:30:33;;;;;;;0.70;0.50;;;6.10;99.90;;;;;;5053356;28;20198;-72
2022/02/21 02:32:59;;;;;;;0.70;0.50;;;6.00;99.90;;;;;;5053478;28;20414;-72
2022/02/21 02:35:32;;;;;;;0.70;0.40;;;6.00;99.90;;;;;;5052899;28;20415;-72
2022/02/21 02:37:58;;;;;;;0.70;0.50;;;6.00;99.90;;;;;;5024365;28;20175;-72
2022/02/21 02:40:23;;;;;;;0.70;0.50;;;6.00;99.90;;;;;;5033178;28;20508;-72
2022/02/21 02:42:49;;;;;;;0.80;0.80;;;6.00;99.90;;;;;;5033587;28;20403;-72
2022/02/21 02:45:14;;;;;;;0.70;0.50;;;6.00;99.90;;;;;;5035699;28;20554;-71
2022/02/21 02:47:40;;;;;;;0.70;0.50;;;6.10;99.90;;;;;;5052980;28;20181;-71
2022/02/21 02:50:07;;;;;;;0.70;0.50;;;6.10;99.90;;;;;;5053035;28;20260;-70
2022/02/21 02:52:32;;;;;;;0.70;0.50;;;6.20;99.90;;;;;;5039496;28;20622;-71
2022/02/21 02:54:58;;;;;;;0.70;0.40;;;6.20;99.90;;;;;;5033296;28;20434;-71
2022/02/21 02:57:24;;;;;;;0.70;0.50;;;6.20;99.90;;;;;;5033040;28;20183;-72
2022/02/21 02:59:49;;;;;;;0.70;0.50;;;6.20;99.90;;;;;;5031752;28;20229;-72
2022/02/21 03:02:15;;;;;;;0.70;0.40;;;6.10;99.90;;;;;;5033084;28;20711;-72
2022/02/21 03:04:40;;;;;;;1.20;0.97;;;6.10;99.90;;;;;;5033093;28;20683;-71
2022/02/21 03:07:06;;;;;;;0.70;0.40;;;6.10;99.90;;;;;;5053130;28;20178;-70
2022/02/21 03:09:32;;;;;;;0.70;0.40;;;6.00;99.90;;;;;;5036460;28;20536;-71
2022/02/21 03:11:58;;;;;;;0.70;0.50;;;5.90;99.90;;;;;;5013226;28;20196;-71
2022/02/21 03:14:25;;;;;;;0.70;0.50;;;5.80;99.90;;;;;;5016214;28;20226;-71
2022/02/21 03:16:51;;;;;;;0.70;0.47;;;5.70;99.90;;;;;;5032947;28;20426;-72
2022/02/21 03:19:19;;;;;;;0.70;0.50;;;5.70;99.90;;;;;;5036702;28;20433;-72
2022/02/21 03:21:45;;;;;;;0.70;0.50;;;5.60;99.90;;;;;;5052526;28;20461;-71
2022/02/21 03:24:11;;;;;;;0.70;0.50;;;5.60;99.90;;;;;;5037726;28;20419;-71
2022/02/21 03:26:36;;;;;;;0.70;0.50;;;5.60;99.90;;;;;;5031377;28;20427;-72
2022/02/21 03:29:03;;;;;;;0.70;0.50;;;5.60;99.90;;;;;;5032400;28;20164;-72
2022/02/21 03:31:28;;;;;;;0.70;0.50;;;5.50;99.90;;;;;;5040309;28;20194;-72
2022/02/21 03:33:54;;;;;;;0.70;0.50;;;5.50;99.90;;;;;;5052440;28;20409;-71
2022/02/21 03:36:20;;;;;;;0.70;0.50;;;5.50;99.90;;;;;;5051358;28;20313;-72
2022/02/21 03:38:45;;;;;;;0.70;0.50;;;5.50;99.90;;;;;;5032429;28;20528;-69
2022/02/21 03:41:11;;;;;;;0.70;0.50;;;5.50;99.90;;;;;;5031955;28;20253;-72
2022/02/21 03:43:37;;;;;;;0.70;0.50;;;5.50;99.90;;;;;;5032305;28;20535;-72
2022/02/21 03:46:03;;;;;;;0.70;0.50;;;5.50;99.90;;;;;;5045158;28;20182;-72
2022/02/21 03:48:28;;;;;;;0.70;0.50;;;5.60;99.90;;;;;;5051900;28;20750;-72
2022/02/21 03:50:54;;;;;;;0.70;0.50;;;5.60;99.90;;;;;;5051772;28;20195;-71
2022/02/21 03:53:19;;;;;;;0.70;0.50;;;5.60;99.90;;;;;;5041318;28;20186;-72
2022/02/21 03:55:45;;;;;;;0.70;0.50;;;5.60;99.90;;;;;;5032241;28;20599;-73
2022/02/21 03:58:11;;;;;;;0.70;0.50;;;5.60;99.90;;;;;;5031469;28;20270;-72
2022/02/21 04:00:37;;;;;;;0.70;0.50;;;5.70;99.90;;;;;;5031822;28;20207;-71
2022/02/21 04:03:02;;;;;;;0.70;0.50;;;5.70;99.90;;;;;;5032133;28;20172;-72
2022/02/21 04:05:28;;;;;;;0.70;0.50;;;5.80;99.90;;;;;;5051861;28;20175;-71
2022/02/21 04:07:54;;;;;;;0.70;0.50;;;5.90;99.90;;;;;;5052009;28;20500;-70
2022/02/21 04:10:19;;;;;;;0.70;0.50;;;5.90;99.90;;;;;;5033615;28;20179;-71
2022/02/21 04:12:46;;;;;;;0.70;0.40;;;5.90;99.90;;;;;;5036974;28;20182;-72
2022/02/21 04:15:11;;;;;;;0.70;0.50;;;5.90;99.90;;;;;;5051838;28;20167;-72
2022/02/21 04:17:49;;;;;;;0.70;0.50;;;5.80;99.90;;;;;;5050683;28;20416;-72
2022/02/21 04:20:17;;;;;;;0.70;0.47;;;5.80;99.90;;;;;;5051445;28;20500;-71
2022/02/21 04:22:43;;;;;;;0.70;0.50;;;5.70;99.90;;;;;;5051949;28;20401;-71
2022/02/21 04:25:11;;;;;;;0.70;0.50;;;5.60;99.90;;;;;;5048877;28;20926;-71
2022/02/21 04:27:40;;;;;;;0.70;0.50;;;5.50;99.90;;;;;;5050164;28;20491;-72
2022/02/21 04:30:06;;;;;;;0.70;0.50;;;5.40;99.90;;;;;;5051496;28;20890;-72
2022/02/21 04:32:32;;;;;;;0.70;0.50;;;5.30;99.90;;;;;;5051658;28;20421;-72
2022/02/21 04:34:57;;;;;;;0.70;0.50;;;5.20;99.90;;;;;;5051461;28;20429;-71
2022/02/21 04:37:23;;;;;;;0.70;0.50;;;5.10;99.90;;;;;;5036288;28;20637;-71
2022/02/21 04:39:48;;;;;;;0.70;0.50;;;5.00;99.90;;;;;;5031925;28;20172;-72
2022/02/21 04:42:14;;;;;;;0.70;0.50;;;4.80;99.90;;;;;;5031623;28;20206;-71
2022/02/21 04:44:39;;;;;;;0.70;0.50;;;4.80;99.90;;;;;;5031696;28;20164;-72
2022/02/21 04:47:05;;;;;;;0.70;0.50;;;4.70;99.90;;;;;;5031841;28;20164;-71
2022/02/21 04:49:31;;;;;;;0.70;0.50;;;4.60;99.90;;;;;;5034239;28;20691;-70
2022/02/21 04:51:57;;;;;;;0.70;0.60;;;4.60;99.90;;;;;;5050148;28;20591;-72
2022/02/21 04:54:23;;;;;;;1.00;1.00;;;4.60;99.90;;;;;;5037548;28;20242;-71
2022/02/21 04:56:49;;;;;;;0.70;0.40;;;4.60;99.90;;;;;;5041604;28;20510;-72
2022/02/21 04:59:14;;;;;;;0.87;0.87;;;4.50;99.90;;;;;;5051224;28;20167;-72
2022/02/21 05:01:40;;;;;;;0.70;0.50;;;4.50;99.90;;;;;;5054622;28;20202;-72
2022/02/21 05:04:05;;;;;;;0.70;0.50;;;4.60;99.90;;;;;;5054933;28;20539;-71
2022/02/21 05:06:31;;;;;;;0.70;0.50;;;4.60;99.90;;;;;;5043652;28;20258;-71
2022/02/21 05:08:58;;;;;;;0.70;0.50;;;4.70;99.90;;;;;;5049506;28;20540;-72
2022/02/21 05:11:23;;;;;;;0.70;0.50;;;4.70;99.90;;;;;;5039571;28;20192;-71
2022/02/21 05:13:49;;;;;;;0.70;0.50;;;4.80;99.90;;;;;;5035095;28;20436;-71
2022/02/21 05:16:14;;;;;;;0.70;0.50;;;4.90;99.90;;;;;;5035257;28;20217;-71
2022/02/21 05:18:40;;;;;;;0.70;0.43;;;5.00;99.90;;;;;;5035098;28;20172;-71
2022/02/21 05:21:06;;;;;;;0.70;0.50;;;5.00;99.90;;;;;;5034689;28;20199;-70
2022/02/21 05:23:31;;;;;;;0.70;0.50;;;5.10;99.90;;;;;;5036135;28;20573;-71
2022/02/21 05:25:57;;;;;;;0.70;0.70;;;5.10;99.90;;;;;;5053899;28;20666;-71
2022/02/21 05:28:22;;;;;;;0.70;0.50;;;5.10;99.90;;;;;;5054803;28;20238;-71
2022/02/21 05:30:48;;;;;;;0.70;0.47;;;5.20;99.90;;;;;;5054512;28;20202;-71
2022/02/21 05:33:15;;;;;;;0.70;0.50;;;5.20;99.90;;;;;;5054678;28;20174;-71
2022/02/21 05:35:40;;;;;;;0.70;0.50;;;5.20;99.90;;;;;;5047928;28;20645;-71
2022/02/21 05:38:06;;;;;;;0.70;0.50;;;5.20;99.90;;;;;;5035207;28;20425;-70
2022/02/21 05:40:31;;;;;;;0.70;0.50;;;5.10;99.90;;;;;;5034352;28;20195;-71
2022/02/21 05:42:57;;;;;;;0.70;0.50;;;5.10;99.90;;;;;;5035733;28;20170;-71
2022/02/21 05:45:22;;;;;;;0.70;0.50;;;5.10;99.90;;;;;;5034546;28;20242;-70
2022/02/21 05:47:48;;;;;;;0.70;0.50;;;5.10;99.90;;;;;;5034616;28;20255;-71
2022/02/21 05:50:14;;;;;;;0.70;0.50;;;5.10;99.90;;;;;;5034232;28;20249;-71
2022/02/21 05:52:39;;;;;;;0.70;0.50;;;5.10;99.90;;;;;;5041533;28;20171;-70
2022/02/21 05:55:05;;;;;;;0.70;0.50;;;5.10;99.90;;;;;;5043499;28;20219;-70
2022/02/21 05:57:31;;;;;;;0.70;0.50;;;5.00;99.90;;;;;;5034254;28;20524;-70
2022/02/21 05:59:56;;;;;;;0.70;0.40;;;5.00;99.90;;;;;;5033452;28;20406;-71
2022/02/21 06:02:22;;;;;;;0.70;0.50;;;5.00;99.90;;;;;;5034529;28;20730;-71
2022/02/21 06:04:48;;;;;;;0.70;0.50;;;5.00;99.90;;;;;;5050223;28;20206;-70
2022/02/21 06:07:15;;;;;;;0.70;0.50;;;5.00;99.90;;;;;;5042412;28;20457;-71
2022/02/21 06:09:41;;;;;;;0.70;0.50;;;5.00;99.90;;;;;;5033928;28;20167;-69
2022/02/21 06:12:07;;;;;;;0.70;0.50;;;5.10;99.90;;;;;;5034992;28;20859;-71
2022/02/21 06:14:33;;;;;;;0.70;0.50;;;5.10;99.90;;;;;;5034326;28;20771;-72
2022/02/21 06:16:58;;;;;;;0.70;0.50;;;5.10;99.90;;;;;;5034485;28;20493;-72
2022/02/21 06:19:24;;;;;;;0.70;0.50;;;5.20;99.90;;;;;;5034187;28;20167;-72
2022/02/21 06:21:49;;;;;;;0.70;0.50;;;5.20;99.90;;;;;;5050098;28;20602;-72
2022/02/21 06:24:15;;;;;;;0.70;0.50;;;5.20;99.90;;;;;;5054324;28;20635;-72
2022/02/21 06:26:40;;;;;;;0.80;0.60;;;5.30;99.90;;;;;;5047728;28;20183;-72
2022/02/21 06:29:06;;;;;;;0.70;0.50;;;5.30;99.90;;;;;;5035320;28;20168;-71
2022/02/21 06:31:32;;;;;;;0.70;0.50;;;5.30;99.90;;;;;;5041604;28;20202;-71
2022/02/21 06:33:58;;;;;;;0.70;0.50;;;5.40;99.90;;;;;;5054603;28;20174;-70
2022/02/21 06:36:23;;;;;;;0.70;0.50;;;5.50;99.90;;;;;;5034054;28;20425;-70
2022/02/21 06:38:49;;;;;;;0.70;0.40;;;5.60;99.90;;;;;;5034479;28;20199;-71
2022/02/21 06:41:15;;;;;;;0.70;0.43;;;5.70;99.90;;;;;;5033088;28;20582;-71
2022/02/21 06:43:41;;;;;;;0.70;0.50;;;5.70;99.90;;;;;;5038479;28;20171;-71
2022/02/21 06:46:07;;;;;;;0.70;0.50;;;5.80;99.90;;;;;;5033501;28;20251;-72
2022/02/21 06:48:33;;;;;;;0.70;0.50;;;5.80;99.90;;;;;;5035745;28;20426;-71
2022/02/21 06:50:59;;;;;;;0.70;0.50;;;5.80;99.90;;;;;;5051576;28;20456;-71
2022/02/21 06:53:24;;;;;;;0.70;0.50;;;5.80;99.90;;;;;;5053061;28;20338;-71
2022/02/21 06:55:50;;;;;;;0.70;0.50;;;5.80;99.90;;;;;;5053105;28;20228;-72
2022/02/21 06:58:15;;;;;;;0.70;0.60;;;5.80;99.90;;;;;;5049837;28;20167;-72
2022/02/21 07:00:42;;;;;;;0.70;0.40;;;5.80;99.90;;;;;;5050064;28;20573;-71
2022/02/21 07:03:08;;;;;;;0.90;0.90;;;5.80;99.90;;;;;;5039971;28;20172;-71
2022/02/21 07:05:33;;;;;;;0.70;0.40;;;5.70;99.90;;;;;;5033017;28;20423;-71
2022/02/21 07:07:59;;;;;;;0.70;0.50;;;5.70;99.90;;;;;;5033063;28;20530;-71
2022/02/21 07:10:24;;;;;;;0.70;0.50;;;5.70;99.90;;;;;;5032506;28;20171;-71
2022/02/21 07:12:51;;;;;;;0.70;0.57;;;5.70;99.90;;;;;;5041714;28;20159;-71
2022/02/21 07:15:16;;;;;;;0.70;0.50;;;5.70;99.90;;;;;;5051573;28;20184;-71
2022/02/21 07:17:42;;;;;;;0.70;0.50;;;5.80;99.90;;;;;;5032986;28;21131;-72
2022/02/21 07:20:12;;;;;;;0.70;0.50;;;5.80;99.90;;;;;;5032447;28;20586;-71
2022/02/21 07:22:40;;;;;;;0.70;0.40;;;5.90;99.90;;;;;;5032948;28;20167;-71
2022/02/21 07:25:06;;;;;;;0.70;0.50;;;5.90;99.90;;;;;;5030583;28;20414;-71
2022/02/21 07:27:39;;;;;;;0.70;0.50;;;6.00;99.90;;;;;;5039607;28;20417;-71
2022/02/21 07:30:05;;;;;;;0.70;0.50;;;6.10;99.90;;;;;;5034796;28;20505;-71
2022/02/21 07:32:30;;;;;;;0.70;0.50;;;6.10;99.90;;;;;;5052511;28;20428;-72
2022/02/21 07:34:56;;;;;;;0.70;0.50;;;6.20;99.90;;;;;;5052380;28;21012;-71
2022/02/21 07:37:21;;;;;;;0.70;0.40;;;6.20;99.90;;;;;;5052448;28;20171;-71
2022/02/21 07:39:47;;;;;;;0.70;0.50;;;6.30;99.90;;;;;;5052227;28;20292;-72
2022/02/21 07:42:12;;;;;;;0.70;0.50;;;6.30;99.90;;;;;;5051971;28;20750;-71
2022/02/21 07:44:38;;;;;;;0.70;0.50;;;6.50;99.90;;;;;;5033761;28;20168;-72
2022/02/21 07:47:05;;;;;;;0.70;0.50;;;6.70;99.90;;;;;;5032162;28;20178;-71
2022/02/21 07:49:30;;;;;;;0.70;0.50;;;6.90;99.90;;;;;;5032151;28;20190;-72
2022/02/21 07:51:56;;;;;;;0.70;0.50;;;7.00;99.90;;;;;;5031143;28;20469;-71
2022/02/21 07:54:21;;;;;;;0.70;0.50;;;7.20;99.90;;;;;;5032491;28;20246;-72
2022/02/21 07:56:47;;;;;;;0.73;0.57;;;7.40;99.90;;;;;;5032410;28;20233;-72
2022/02/21 07:59:12;;;;;;;0.70;0.50;;;7.50;99.90;;;;;;5034612;28;20210;-72
2022/02/21 08:01:38;;;;;;;3.87;2.50;;;7.70;99.90;;;;;;5031808;28;20290;-71
2022/02/21 08:04:04;;;;;;;0.70;0.50;;;7.80;99.90;;;;;;5032306;28;20163;-72
2022/02/21 08:06:29;;;;;;;0.70;0.60;;;7.90;99.90;;;;;;5032301;28;20168;-72
2022/02/21 08:08:55;;;;;;;0.70;0.50;;;7.90;99.90;;;;;;5032280;28;20164;-72
2022/02/21 08:11:21;;;;;;;0.70;0.50;;;7.90;99.90;;;;;;5037436;28;20694;-72
2022/02/21 08:13:47;;;;;;;0.70;0.50;;;8.20;99.90;;;;;;5044369;28;20168;-70
2022/02/21 08:16:12;;;;;;;0.70;0.50;;;8.70;99.90;;;;;;5032654;28;20475;-70
2022/02/21 08:18:38;;;;;;;0.70;0.50;;;9.20;99.90;;;;;;5033427;28;20183;-71
2022/02/21 08:21:03;;;;;;;0.70;0.50;;;9.50;99.90;;;;;;5032661;28;20203;-71
2022/02/21 08:23:29;;;;;;;1.40;1.30;;;9.90;99.90;;;;;;5046848;28;20174;-72
2022/02/21 08:25:55;;;;;;;0.70;0.50;;;10.20;99.90;;;;;;5053643;28;20187;-72
2022/02/21 08:28:21;;;;;;;1.57;1.47;;;10.60;99.90;;;;;;5053336;28;20171;-72
2022/02/21 08:30:46;;;;;;;0.80;0.80;;;11.10;99.90;;;;;;5034889;28;20205;-71
2022/02/21 08:33:12;;;;;;;0.70;0.50;;;11.70;99.90;;;;;;5046793;28;20437;-72
2022/02/21 08:35:39;;;;;;;0.70;0.60;;;12.20;97.40;;;;;;5055016;28;20584;-72
2022/02/21 08:38:05;;;;;;;0.70;0.50;;;12.70;93.90;;;;;;5049164;28;20233;-72
2022/02/21 08:40:31;;;;;;;0.70;0.50;;;13.10;93.10;;;;;;5036898;28;20457;-72
2022/02/21 08:42:56;;;;;;;1.40;1.10;;;13.70;91.80;;;;;;5037492;28;20625;-72
2022/02/21 08:45:22;;;;;;;0.70;0.50;;;14.20;88.20;;;;;;5036286;28;20425;-72
2022/02/21 08:47:47;;;;;;;1.73;1.13;;;14.50;81.20;;;;;;5035796;28;20179;-70
2022/02/21 08:50:14;;;;;;;0.70;0.50;;;14.80;77.40;;;;;;5036054;28;20179;-71
2022/02/21 08:52:41;;;;;;;0.70;0.50;;;15.20;76.00;;;;;;5037118;28;20175;-72
2022/02/21 08:55:08;;;;;;;0.70;0.60;;;15.70;72.70;;;;;;5037712;28;20893;-73
2022/02/21 08:57:36;;;;;;;0.70;0.50;;;16.20;70.30;;;;;;5037038;28;20438;-72
2022/02/21 09:00:03;;;;;;;0.80;0.70;;;16.80;70.00;;;;;;5035752;28;20410;-71
2022/02/21 09:02:29;;;;;;;0.90;0.60;;;17.50;66.40;;;;;;5038133;28;20461;-73
2022/02/21 09:04:54;;;;;;;1.37;0.80;;;18.00;64.10;;;;;;5037120;28;20422;-73
2022/02/21 09:07:20;;;;;;;0.70;0.50;;;18.60;60.60;;;;;;5037623;28;20180;-72
2022/02/21 09:09:45;;;;;;;0.70;0.50;;;19.00;57.50;;;;;;5036243;28;20183;-73
2022/02/21 09:12:11;;;;;;;0.80;0.50;;;19.20;54.70;;;;;;5037452;28;20203;-74
2022/02/21 09:14:36;;;;;;;0.80;0.80;;;19.50;54.00;;;;;;5035232;28;20251;-71
2022/02/21 09:17:02;;;;;;;0.70;0.50;;;19.60;52.10;;;;;;5035037;28;20171;-72
2022/02/21 09:19:28;;;;;;;0.90;0.77;;;19.90;51.90;;;;;;5052550;28;20191;-71
2022/02/21 09:21:53;;;;;;;0.80;0.70;;;20.00;50.50;;;;;;5043111;28;20211;-71
2022/02/21 09:24:19;;;;;;;1.03;0.60;;;19.70;49.50;;;;;;5034663;28;20172;-71
2022/02/21 09:26:44;;;;;;;1.40;0.60;;;19.60;48.50;;;;;;5034618;28;20528;-73
2022/02/21 09:29:10;;;;;;;0.70;0.50;;;19.40;48.40;;;;;;5034540;28;20522;-71
2022/02/21 09:31:35;;;;;;;0.77;0.60;;;19.60;48.70;;;;;;5038602;28;20201;-72
2022/02/21 09:34:01;;;;;;;0.70;0.50;;;20.00;49.10;;;;;;5054265;28;20182;-72
2022/02/21 09:36:26;;;;;;;0.80;0.70;;;20.20;49.00;;;;;;5054031;28;21034;-72
2022/02/21 09:38:52;;;;;;;2.17;0.97;;;20.40;48.10;;;;;;5054235;28;20261;-72
2022/02/21 09:41:19;;;;;;;0.70;0.50;;;20.30;47.20;;;;;;5052547;28;20246;-72
2022/02/21 09:43:45;;;;;;;0.70;0.50;;;20.50;47.10;;;;;;5051576;28;20171;-72
2022/02/21 09:46:10;;;;;;;0.70;0.50;;;20.10;46.30;;;;;;5034964;28;20446;-72
2022/02/21 09:48:37;;;;;;;0.70;0.60;;;19.60;46.30;;;;;;5033704;28;20549;-71
2022/02/21 09:51:04;;;;;;;1.00;0.80;;;19.20;46.30;;;;;;5048937;28;20729;-71
2022/02/21 09:53:32;;;;;;;1.20;1.10;;;18.60;46.60;;;;;;5053934;28;20780;-72
2022/02/21 09:55:58;;;;;;;0.80;0.60;;;17.90;47.10;;;;;;5054222;28;20409;-73
2022/02/21 09:58:25;;;;;;;0.90;0.80;;;17.20;48.10;;;;;;5052687;28;20410;-74
2022/02/21 10:00:53;;;;;;;0.70;0.50;;;16.50;48.60;;;;;;5042848;28;21076;-73
2022/02/21 10:03:36;;;;;;;0.70;0.60;;;15.90;49.80;;;;;;5042208;28;20945;-74
2022/02/21 10:06:18;;;;;;;0.70;0.50;;;15.50;50.90;;;;;;5056999;28;20428;-73
2022/02/21 10:08:53;;;;;;;0.70;0.50;;;15.00;51.70;;;;;;5056953;28;20406;-74
2022/02/21 10:11:29;;;;;;;0.70;0.50;;;14.60;52.80;;;;;;5056036;28;20424;-73
2022/02/21 10:14:09;;;;;;;4.20;3.23;;;14.20;54.20;;;;;;5050455;28;20434;-73
2022/02/21 10:16:47;;;;;;;0.70;0.50;;;13.90;55.40;;;;;;5017071;28;20411;-72
2022/02/21 10:19:13;;;;;;;0.70;0.50;;;13.60;55.90;;;;;;5015291;28;20504;-71
2022/02/21 10:22:04;;;;;;;0.70;0.50;;;13.50;57.80;;;;;;5013916;28;20467;-71
2022/02/21 10:24:46;;;;;;;0.70;0.50;;;13.60;58.20;;;;;;5013821;28;20215;-71
2022/02/21 10:27:23;;;;;;;0.70;0.50;;;13.90;59.10;;;;;;5023065;28;20493;-72
2022/02/21 10:29:55;;;;;;;0.70;0.50;;;14.10;59.60;;;;;;5033088;28;20505;-71
2022/02/21 10:32:26;;;;;;;0.70;0.50;;;14.30;59.30;;;;;;5053250;28;20484;-72
2022/02/21 10:34:53;;;;;;;0.70;0.60;;;14.20;59.10;;;;;;5038925;28;20481;-73
2022/02/21 10:37:25;;;;;;;5.13;0.80;;;13.80;59.50;;;;;;5015663;28;20443;-72
2022/02/21 10:40:07;;;;;;;0.70;0.50;;;13.30;61.00;;;;;;5022280;28;20489;-71
2022/02/21 10:42:32;;;;;;;3.10;0.80;;;12.80;63.40;;;;;;5033009;28;20544;-71
2022/02/21 10:45:13;;;;;;;0.70;0.50;;;12.30;66.80;;;;;;5033085;28;20780;-71
2022/02/21 10:48:20;;;;;;;0.70;0.60;;;11.90;70.80;;;;;;5032992;28;20171;-72
2022/02/21 10:50:57;;;;;;;0.70;0.50;;;11.60;75.50;;;;;;5031938;28;20471;-72
2022/02/21 10:53:23;;;;;;;0.70;0.50;;;11.10;86.30;;;;;;5025293;28;20466;-73
2022/02/21 10:55:51;;;;;;;0.70;0.50;;;10.70;94.70;;;;;;5026155;28;20453;-75
2022/02/21 10:58:19;;;;;;;0.70;0.50;;;10.20;99.90;;;;;;5016934;28;20411;-74
2022/02/21 11:00:46;;;;;;;0.70;0.50;;;9.80;99.90;;;;;;5015240;28;20538;-74
2022/02/21 11:03:14;;;;;;;0.70;0.50;;;9.50;99.90;;;;;;5030762;28;20492;-73
2022/02/21 11:05:40;;;;;;;0.70;0.50;;;9.20;99.90;;;;;;5034450;28;20896;-74
2022/02/21 11:08:06;;;;;;;0.70;0.50;;;9.00;99.90;;;;;;5043210;28;20479;-75
2022/02/21 11:10:34;;;;;;;0.70;0.50;;;8.80;99.90;;;;;;5051806;28;20559;-72
2022/02/21 11:13:01;;;;;;;0.93;0.63;;;8.60;99.90;;;;;;5052545;28;20398;-72
2022/02/21 11:15:27;;;;;;;0.70;0.50;;;8.50;99.90;;;;;;5048536;28;20509;-71
2022/02/21 11:17:54;;;;;;;0.70;0.50;;;8.40;99.90;;;;;;5032685;28;20437;-71
2022/02/21 11:20:20;;;;;;;0.70;0.50;;;8.50;99.90;;;;;;5032063;28;20406;-72
2022/02/21 11:22:45;;;;;;;0.70;0.50;;;8.50;99.90;;;;;;5032554;28;20413;-72
2022/02/21 11:25:19;;;;;;;0.70;0.50;;;8.60;99.90;;;;;;5032302;28;20175;-72
2022/02/21 11:28:03;;;;;;;0.80;0.50;;;8.60;99.90;;;;;;5031098;28;20181;-71
2022/02/21 11:30:30;;;;;;;0.70;0.50;;;8.70;99.90;;;;;;5051805;28;20508;-72
2022/02/21 11:33:05;;;;;;;1.87;1.77;;;8.60;99.90;;;;;;5036227;28;20946;-73
2022/02/21 11:35:31;;;;;;;0.70;0.50;;;8.40;99.90;;;;;;5034150;28;20945;-73
2022/02/21 11:38:02;;;;;;;0.70;0.50;;;8.30;99.90;;;;;;5050947;28;20456;-71
2022/02/21 11:40:28;;;;;;;0.70;0.50;;;8.10;99.90;;;;;;5051780;28;20907;-72
2022/02/21 11:42:53;;;;;;;0.80;0.60;;;7.90;99.90;;;;;;5052050;28;20409;-72
2022/02/21 11:45:27;;;;;;;0.70;0.50;;;7.70;99.90;;;;;;5052062;28;20404;-71
2022/02/21 11:47:57;;;;;;;0.70;0.50;;;7.50;99.90;;;;;;5045689;28;20167;-72
2022/02/21 11:50:31;;;;;;;0.70;0.50;;;7.30;99.90;;;;;;5035694;28;20442;-73
2022/02/21 11:53:24;;;;;;;0.70;0.50;;;7.10;99.90;;;;;;5037614;28;20421;-73
2022/02/21 11:55:51;;;;;;;0.70;0.50;;;6.90;99.90;;;;;;5038084;28;20418;-72
2022/02/21 11:58:18;;;;;;;0.70;0.50;;;6.80;99.90;;;;;;5031948;28;20819;-73
2022/02/21 12:00:48;;;;;;;0.70;0.50;;;6.70;99.90;;;;;;5031506;28;20478;-72
2022/02/21 12:03:29;;;;;;;0.70;0.50;;;6.60;99.90;;;;;;5031641;28;20418;-73
2022/02/21 12:05:58;;;;;;;0.70;0.50;;;6.60;99.90;;;;;;5031862;28;20382;-73
2022/02/21 12:08:29;;;;;;;0.70;0.50;;;6.60;99.90;;;;;;5032384;28;20769;-75
2022/02/21 12:11:04;;;;;;;0.70;0.50;;;6.60;99.90;;;;;;5031240;28;20422;-73
2022/02/21 12:13:31;;;;;;;0.70;0.50;;;6.50;99.90;;;;;;5036248;28;20905;-75
2022/02/21 12:16:08;;;;;;;0.70;0.50;;;6.60;99.90;;;;;;5056521;28;20924;-74
2022/02/21 12:18:43;;;;;;;0.70;0.50;;;6.60;99.90;;;;;;5046449;28;20423;-74
2022/02/21 12:21:24;;;;;;;0.70;0.47;;;6.60;99.90;;;;;;5036080;28;20552;-74
2022/02/21 12:23:53;;;;;;;0.70;0.40;;;6.70;99.90;;;;;;5031775;28;20406;-73
2022/02/21 12:26:35;;;;;;;1.00;0.80;;;6.70;99.90;;;;;;5032046;28;20406;-73
2022/02/21 12:29:15;;;;;;;0.70;0.40;;;6.80;99.90;;;;;;5032080;28;20855;-73
2022/02/21 12:31:57;;;;;;;0.70;0.50;;;6.80;99.90;;;;;;5030988;28;20476;-73
2022/02/21 12:34:28;;;;;;;0.70;0.50;;;6.80;99.90;;;;;;5036598;28;20413;-75
2022/02/21 12:37:05;;;;;;;0.80;0.67;;;6.80;99.90;;;;;;5039154;28;20449;-74
2022/02/21 12:39:33;;;;;;;1.47;1.37;;;6.90;99.90;;;;;;5032759;28;20501;-74
2022/02/21 12:41:59;;;;;;;0.70;0.50;;;7.00;99.90;;;;;;5033741;28;20489;-75
2022/02/21 12:44:26;;;;;;;0.70;0.50;;;7.10;99.90;;;;;;5035340;28;20434;-75
2022/02/21 12:46:57;;;;;;;0.70;0.50;;;7.10;99.90;;;;;;5047306;28;20421;-72
2022/02/21 12:49:26;;;;;;;0.70;0.50;;;7.20;99.90;;;;;;5031240;28;20422;-75
2022/02/21 12:51:55;;;;;;;0.70;0.50;;;7.30;99.90;;;;;;5031105;28;20434;-74
2022/02/21 12:54:22;;;;;;;1.37;0.77;;;7.30;99.90;;;;;;5031351;28;20456;-74
2022/02/21 12:56:49;;;;;;;0.70;0.50;;;7.40;99.90;;;;;;5031554;28;20457;-74